Time;durP1;ratioP1;P1;durP2;ratioP2;P2;SDS_P1;SDS_P2;PMS_P1;PMS_P2;Temp;Humidity;BMP_temperature;BMP_pressure;BME280_temperature;BME280_humidity;BME280_pressure;Samples;Min_cycle;Max_cycle;Signal;HPM_P1;HPM_P2
2021/07/05 00:02:20;;;;;;;;;4.00;2.50;;;;;;;;5030591;28;45675;-79
2021/07/05 00:04:46;;;;;;;;;2.00;2.00;;;;;;;;5039520;28;45784;-79
2021/07/05 00:07:11;;;;;;;;;3.00;3.00;;;;;;;;5026286;28;47022;-80
2021/07/05 00:09:37;;;;;;;;;3.00;2.00;;;;;;;;5028535;28;45751;-80
2021/07/05 00:12:03;;;;;;;;;4.00;2.25;;;;;;;;5032781;28;45860;-79
2021/07/05 00:14:28;;;;;;;;;3.00;3.00;;;;;;;;5029935;28;45401;-80
2021/07/05 00:16:54;;;;;;;;;2.25;2.00;;;;;;;;5027220;28;45595;-79
2021/07/05 00:19:19;;;;;;;;;2.00;2.00;;;;;;;;5021492;28;47899;-79
2021/07/05 00:21:44;;;;;;;;;2.00;2.00;;;;;;;;5031551;28;45481;-79
2021/07/05 00:24:10;;;;;;;;;3.00;3.00;;;;;;;;5033604;28;45838;-79
2021/07/05 00:26:35;;;;;;;;;2.00;2.00;;;;;;;;5028800;28;45433;-79
2021/07/05 00:29:00;;;;;;;;;4.00;3.00;;;;;;;;5028569;28;46048;-79
2021/07/05 00:31:26;;;;;;;;;3.00;2.00;;;;;;;;5029256;28;45466;-79
2021/07/05 00:33:51;;;;;;;;;1.75;1.75;;;;;;;;5009678;28;45324;-80
2021/07/05 00:36:16;;;;;;;;;3.00;2.00;;;;;;;;4998780;28;45548;-80
2021/07/05 00:38:42;;;;;;;;;3.50;2.25;;;;;;;;4997260;28;46947;-80
2021/07/05 00:41:07;;;;;;;;;3.00;1.25;;;;;;;;4992480;28;45806;-80
2021/07/05 00:43:32;;;;;;;;;4.00;2.75;;;;;;;;4994939;28;47505;-80
2021/07/05 00:45:58;;;;;;;;;4.75;2.75;;;;;;;;4988112;28;45914;-80
2021/07/05 00:48:23;;;;;;;;;2.50;2.50;;;;;;;;4998323;28;45544;-80
2021/07/05 00:50:48;;;;;;;;;4.00;3.00;;;;;;;;4993191;28;45889;-80
2021/07/05 00:53:14;;;;;;;;;2.50;2.50;;;;;;;;4990845;28;46235;-80
2021/07/05 00:55:39;;;;;;;;;4.00;1.00;;;;;;;;4990860;28;45735;-79
2021/07/05 00:58:04;;;;;;;;;4.50;3.00;;;;;;;;4987121;28;51018;-80
2021/07/05 01:00:30;;;;;;;;;4.25;3.00;;;;;;;;4987086;28;45525;-80
2021/07/05 01:02:56;;;;;;;;;6.00;3.00;;;;;;;;4991936;28;45584;-79
2021/07/05 01:05:22;;;;;;;;;2.75;2.75;;;;;;;;4988101;28;45608;-80
2021/07/05 01:07:47;;;;;;;;;3.75;3.00;;;;;;;;4989235;28;48054;-79
2021/07/05 01:10:14;;;;;;;;;2.50;2.50;;;;;;;;4987670;28;46293;-80
2021/07/05 01:12:40;;;;;;;;;3.25;2.25;;;;;;;;4988901;28;45593;-80
2021/07/05 01:15:09;;;;;;;;;3.75;2.50;;;;;;;;4997965;28;45565;-80
2021/07/05 01:17:34;;;;;;;;;3.00;3.00;;;;;;;;4987590;28;46784;-80
2021/07/05 01:19:59;;;;;;;;;3.00;2.00;;;;;;;;4994634;28;46066;-80
2021/07/05 01:22:25;;;;;;;;;3.00;2.50;;;;;;;;4994504;28;45857;-80
2021/07/05 01:24:50;;;;;;;;;2.00;2.00;;;;;;;;4995070;28;45695;-80
2021/07/05 01:27:16;;;;;;;;;3.00;3.00;;;;;;;;4989993;28;46357;-80
2021/07/05 01:29:42;;;;;;;;;3.50;2.25;;;;;;;;4988158;28;46055;-80
2021/07/05 01:32:08;;;;;;;;;2.75;2.75;;;;;;;;4988725;28;45566;-80
2021/07/05 01:34:34;;;;;;;;;3.00;3.00;;;;;;;;5017666;28;45507;-79
2021/07/05 01:36:59;;;;;;;;;4.00;2.50;;;;;;;;5011333;28;46226;-80
2021/07/05 01:39:24;;;;;;;;;2.25;2.00;;;;;;;;5032564;28;45682;-79
2021/07/05 01:41:50;;;;;;;;;2.50;2.50;;;;;;;;5024555;28;45604;-80
2021/07/05 01:44:16;;;;;;;;;2.50;2.50;;;;;;;;5016861;28;45638;-80
2021/07/05 01:46:41;;;;;;;;;3.00;2.00;;;;;;;;5030875;28;48353;-80
2021/07/05 01:49:06;;;;;;;;;3.75;2.00;;;;;;;;5014145;28;45582;-80
2021/07/05 01:51:32;;;;;;;;;3.75;2.25;;;;;;;;5029021;28;52715;-79
2021/07/05 01:53:58;;;;;;;;;2.00;2.00;;;;;;;;5035983;28;45519;-79
2021/07/05 01:56:24;;;;;;;;;3.75;2.75;;;;;;;;5025549;28;46870;-80
2021/07/05 01:58:49;;;;;;;;;6.00;1.75;;;;;;;;5030807;28;45793;-80
2021/07/05 02:01:14;;;;;;;;;1.75;1.75;;;;;;;;5032619;28;45777;-79
2021/07/05 02:03:39;;;;;;;;;5.50;3.00;;;;;;;;5024150;28;48221;-79
2021/07/05 02:06:05;;;;;;;;;6.00;2.00;;;;;;;;5035581;28;46164;-79
2021/07/05 02:08:30;;;;;;;;;1.33;1.33;;;;;;;;5030044;28;46040;-79
2021/07/05 02:10:55;;;;;;;;;2.75;2.75;;;;;;;;5016055;28;45830;-79
2021/07/05 02:13:22;;;;;;;;;2.00;2.00;;;;;;;;5032626;28;45597;-80
2021/07/05 02:15:48;;;;;;;;;3.00;2.00;;;;;;;;5028889;28;45598;-79
2021/07/05 02:18:14;;;;;;;;;3.00;2.00;;;;;;;;5033867;28;45538;-79
2021/07/05 02:20:40;;;;;;;;;2.00;2.00;;;;;;;;5032055;28;45453;-80
2021/07/05 02:23:06;;;;;;;;;3.00;1.75;;;;;;;;5032706;28;45594;-79
2021/07/05 02:25:33;;;;;;;;;2.00;2.00;;;;;;;;5033606;28;57726;-79
2021/07/05 02:30:33;;;;;;;;;3.50;3.00;;;;;;;;5494260;22;44857;-79
2021/07/05 02:32:59;;;;;;;;;2.00;2.00;;;;;;;;5017227;28;45803;-79
2021/07/05 02:35:26;;;;;;;;;2.75;2.75;;;;;;;;5006348;28;54061;-80
2021/07/05 02:37:52;;;;;;;;;3.00;2.00;;;;;;;;5013994;28;45502;-80
2021/07/05 02:40:19;;;;;;;;;2.50;2.50;;;;;;;;5006821;28;45581;-80
2021/07/05 02:42:45;;;;;;;;;3.50;2.00;;;;;;;;5024973;28;45408;-80
2021/07/05 02:45:14;;;;;;;;;1.50;1.50;;;;;;;;5012295;28;45687;-80
2021/07/05 02:47:39;;;;;;;;;3.75;2.75;;;;;;;;5018694;28;46954;-80
2021/07/05 02:50:05;;;;;;;;;4.50;4.00;;;;;;;;5009886;28;51347;-80
2021/07/05 02:52:31;;;;;;;;;2.50;2.50;;;;;;;;5009089;28;45660;-80
2021/07/05 02:54:56;;;;;;;;;2.00;2.00;;;;;;;;5018214;28;45937;-80
2021/07/05 02:57:30;;;;;;;;;2.00;2.00;;;;;;;;5016037;28;45430;-81
2021/07/05 03:00:03;;;;;;;;;3.75;2.00;;;;;;;;5003898;28;45531;-79
2021/07/05 03:02:31;;;;;;;;;3.00;2.00;;;;;;;;5017975;28;55164;-79
2021/07/05 03:04:57;;;;;;;;;3.00;2.00;;;;;;;;5021730;28;46383;-80
2021/07/05 03:07:22;;;;;;;;;2.00;2.00;;;;;;;;5008713;28;45660;-80
2021/07/05 03:09:48;;;;;;;;;3.00;3.00;;;;;;;;5012102;28;45799;-80
2021/07/05 03:12:13;;;;;;;;;2.00;2.00;;;;;;;;5012714;28;45635;-80
2021/07/05 03:14:38;;;;;;;;;3.33;2.00;;;;;;;;5013124;28;47445;-80
2021/07/05 03:17:03;;;;;;;;;3.00;3.00;;;;;;;;5011759;28;45501;-80
2021/07/05 03:19:29;;;;;;;;;2.25;2.00;;;;;;;;5013290;28;45944;-79
2021/07/05 03:21:54;;;;;;;;;2.00;2.00;;;;;;;;5012482;28;45499;-79
2021/07/05 03:24:20;;;;;;;;;2.00;2.00;;;;;;;;4996949;28;47490;-79
2021/07/05 03:26:45;;;;;;;;;2.00;2.00;;;;;;;;5010709;28;45690;-79
2021/07/05 03:29:10;;;;;;;;;4.00;2.33;;;;;;;;5021435;28;45481;-81
2021/07/05 03:31:35;;;;;;;;;3.75;2.00;;;;;;;;5010016;28;45521;-79
2021/07/05 03:34:01;;;;;;;;;2.75;2.75;;;;;;;;5016461;28;46459;-78
2021/07/05 03:36:26;;;;;;;;;2.00;2.00;;;;;;;;5013134;28;45597;-79
2021/07/05 03:38:51;;;;;;;;;4.00;3.00;;;;;;;;5009911;28;47405;-80
2021/07/05 03:41:16;;;;;;;;;7.33;3.00;;;;;;;;5016259;28;45539;-80
2021/07/05 03:43:42;;;;;;;;;2.25;2.25;;;;;;;;5007283;28;45497;-79
2021/07/05 03:46:07;;;;;;;;;3.00;3.00;;;;;;;;5014373;28;45561;-79
2021/07/05 03:48:32;;;;;;;;;4.00;3.00;;;;;;;;5015800;28;45498;-79
2021/07/05 03:50:57;;;;;;;;;5.00;4.00;;;;;;;;5006374;28;46055;-79
2021/07/05 03:53:23;;;;;;;;;3.00;3.00;;;;;;;;5014152;28;45513;-80
2021/07/05 03:55:48;;;;;;;;;5.00;3.50;;;;;;;;5012068;28;46358;-79
2021/07/05 03:58:16;;;;;;;;;5.00;3.00;;;;;;;;5007264;28;45562;-79
2021/07/05 04:00:41;;;;;;;;;3.00;3.00;;;;;;;;5015579;28;45462;-79
2021/07/05 04:03:07;;;;;;;;;4.00;3.00;;;;;;;;5010456;28;46295;-79
2021/07/05 04:05:32;;;;;;;;;3.50;2.00;;;;;;;;5014362;28;45620;-79
2021/07/05 04:07:58;;;;;;;;;5.50;2.75;;;;;;;;5010172;28;45667;-79
2021/07/05 04:10:24;;;;;;;;;5.25;2.75;;;;;;;;5014931;28;46062;-79
2021/07/05 04:12:49;;;;;;;;;5.75;3.00;;;;;;;;5020614;28;47189;-80
2021/07/05 04:15:15;;;;;;;;;2.50;2.25;;;;;;;;5009973;28;45543;-79
2021/07/05 04:17:40;;;;;;;;;3.00;2.00;;;;;;;;5004751;28;45980;-79
2021/07/05 04:20:10;;;;;;;;;2.25;2.00;;;;;;;;5005279;28;46332;-80
2021/07/05 04:22:36;;;;;;;;;4.50;2.00;;;;;;;;5006812;28;48450;-80
2021/07/05 04:25:01;;;;;;;;;3.00;2.00;;;;;;;;5010898;28;46012;-80
2021/07/05 04:27:27;;;;;;;;;4.00;1.50;;;;;;;;5011442;28;45659;-79
2021/07/05 04:29:52;;;;;;;;;2.75;2.00;;;;;;;;5013804;28;45629;-79
2021/07/05 04:32:17;;;;;;;;;2.00;2.00;;;;;;;;5010184;28;46425;-79
2021/07/05 04:34:42;;;;;;;;;2.00;1.75;;;;;;;;5009902;28;45620;-80
2021/07/05 04:37:09;;;;;;;;;3.67;1.67;;;;;;;;5012281;28;45597;-80
2021/07/05 04:39:35;;;;;;;;;2.25;2.00;;;;;;;;5007318;28;46125;-80
2021/07/05 04:42:00;;;;;;;;;3.00;2.75;;;;;;;;5010107;28;46070;-80
2021/07/05 04:44:25;;;;;;;;;2.75;2.00;;;;;;;;5001130;28;45703;-79
2021/07/05 04:46:51;;;;;;;;;4.00;2.00;;;;;;;;5011197;28;45565;-79
2021/07/05 04:49:17;;;;;;;;;3.50;2.00;;;;;;;;5017831;28;45569;-79
2021/07/05 04:51:43;;;;;;;;;1.00;1.00;;;;;;;;5009727;28;45675;-80
2021/07/05 04:54:09;;;;;;;;;1.25;1.25;;;;;;;;5017928;28;45518;-80
2021/07/05 04:56:34;;;;;;;;;1.75;1.75;;;;;;;;5012486;28;45414;-80
2021/07/05 04:59:00;;;;;;;;;2.00;1.75;;;;;;;;4995380;28;45593;-79
2021/07/05 05:01:26;;;;;;;;;3.00;2.25;;;;;;;;4996087;28;48009;-79
2021/07/05 05:03:51;;;;;;;;;2.50;2.00;;;;;;;;5006218;28;45827;-80
2021/07/05 05:06:16;;;;;;;;;2.00;2.00;;;;;;;;5017084;28;46517;-80
2021/07/05 05:08:42;;;;;;;;;2.00;2.00;;;;;;;;5011853;28;45509;-80
2021/07/05 05:11:08;;;;;;;;;2.75;1.50;;;;;;;;5016280;28;46675;-82
2021/07/05 05:13:33;;;;;;;;;1.00;1.00;;;;;;;;5002472;28;45817;-80
2021/07/05 05:15:59;;;;;;;;;0.00;0.00;;;;;;;;5014338;28;45621;-79
2021/07/05 05:18:24;;;;;;;;;3.00;1.00;;;;;;;;5015371;28;45882;-83
2021/07/05 05:20:49;;;;;;;;;0.00;0.00;;;;;;;;5004529;28;47092;-82
2021/07/05 05:23:15;;;;;;;;;0.00;0.00;;;;;;;;5013729;28;45458;-82
2021/07/05 05:25:40;;;;;;;;;0.25;0.25;;;;;;;;5433036;22;45738;-82
2021/07/05 05:30:40;;;;;;;;;1.00;1.00;;;;;;;;5176533;22;45955;-81
2021/07/05 05:33:06;;;;;;;;;2.00;1.00;;;;;;;;5016122;28;45536;-82
2021/07/05 05:35:31;;;;;;;;;1.50;1.50;;;;;;;;5011514;28;45886;-82
2021/07/05 05:37:57;;;;;;;;;0.25;0.25;;;;;;;;5007857;28;47757;-82
2021/07/05 05:40:23;;;;;;;;;2.00;1.00;;;;;;;;5013168;28;46046;-82
2021/07/05 05:42:48;;;;;;;;;2.00;1.00;;;;;;;;5011746;28;45626;-81
2021/07/05 05:45:14;;;;;;;;;1.00;1.00;;;;;;;;5013424;28;45613;-82
2021/07/05 05:47:39;;;;;;;;;2.00;1.00;;;;;;;;5024441;28;45536;-82
2021/07/05 05:50:05;;;;;;;;;1.00;1.00;;;;;;;;5011371;28;46981;-82
2021/07/05 05:52:30;;;;;;;;;1.50;1.50;;;;;;;;5017452;28;45534;-82
2021/07/05 05:54:55;;;;;;;;;4.00;1.00;;;;;;;;5003732;28;45861;-82
2021/07/05 05:57:28;;;;;;;;;2.00;2.00;;;;;;;;5022703;28;45523;-81
2021/07/05 05:59:56;;;;;;;;;1.00;1.00;;;;;;;;5020888;28;46044;-81
2021/07/05 06:02:21;;;;;;;;;4.00;1.25;;;;;;;;5010461;28;45615;-81
2021/07/05 06:04:46;;;;;;;;;1.00;1.00;;;;;;;;5006946;28;45390;-81
2021/07/05 06:07:11;;;;;;;;;1.00;1.00;;;;;;;;5007385;28;46051;-81
2021/07/05 06:09:36;;;;;;;;;3.00;1.00;;;;;;;;5014350;28;53834;-81
2021/07/05 06:12:02;;;;;;;;;3.00;2.00;;;;;;;;5008017;28;45759;-81
2021/07/05 06:14:27;;;;;;;;;1.00;1.00;;;;;;;;5009771;28;45823;-81
2021/07/05 06:16:52;;;;;;;;;2.75;1.00;;;;;;;;5007001;28;45551;-81
2021/07/05 06:19:18;;;;;;;;;3.00;2.00;;;;;;;;5015720;28;47395;-81
2021/07/05 06:21:43;;;;;;;;;2.00;2.00;;;;;;;;5007114;28;46391;-81
2021/07/05 06:24:08;;;;;;;;;3.00;1.50;;;;;;;;5010752;28;45783;-81
2021/07/05 06:26:33;;;;;;;;;4.00;1.00;;;;;;;;5012495;28;45663;-81
2021/07/05 06:28:59;;;;;;;;;1.50;1.00;;;;;;;;5007791;28;47146;-82
2021/07/05 06:31:24;;;;;;;;;2.50;1.00;;;;;;;;5016861;28;46284;-81
2021/07/05 06:33:50;;;;;;;;;1.00;1.00;;;;;;;;5005368;28;45472;-81
2021/07/05 06:36:16;;;;;;;;;1.00;1.00;;;;;;;;5014868;28;45593;-81
2021/07/05 06:38:42;;;;;;;;;0.75;0.75;;;;;;;;5003496;28;45928;-82
2021/07/05 06:41:08;;;;;;;;;2.25;2.00;;;;;;;;5010178;28;45465;-81
2021/07/05 06:43:33;;;;;;;;;1.00;1.00;;;;;;;;4998307;28;47027;-81
2021/07/05 06:45:58;;;;;;;;;1.50;1.00;;;;;;;;5006637;28;46075;-81
2021/07/05 06:48:23;;;;;;;;;3.00;2.00;;;;;;;;5002426;28;46432;-80
2021/07/05 06:50:49;;;;;;;;;1.00;1.00;;;;;;;;4997655;28;45482;-81
2021/07/05 06:53:14;;;;;;;;;1.75;1.75;;;;;;;;5013773;28;46276;-81
2021/07/05 06:55:39;;;;;;;;;2.00;2.00;;;;;;;;5021180;28;45581;-81
2021/07/05 06:58:05;;;;;;;;;2.00;2.00;;;;;;;;4992795;28;46938;-82
2021/07/05 07:00:30;;;;;;;;;0.00;0.00;;;;;;;;5008301;28;46964;-80
2021/07/05 07:02:56;;;;;;;;;1.50;1.00;;;;;;;;5009101;28;45511;-82
2021/07/05 07:05:22;;;;;;;;;1.25;1.25;;;;;;;;5008830;28;45493;-81
2021/07/05 07:07:53;;;;;;;;;1.25;1.25;;;;;;;;5018689;28;45656;-82
2021/07/05 07:10:22;;;;;;;;;1.00;1.00;;;;;;;;5008240;28;45739;-80
2021/07/05 07:12:48;;;;;;;;;2.00;2.00;;;;;;;;5007614;28;45544;-81
2021/07/05 07:15:15;;;;;;;;;2.00;1.00;;;;;;;;5002819;28;45614;-80
2021/07/05 07:17:46;;;;;;;;;2.00;1.00;;;;;;;;5008572;28;48188;-82
2021/07/05 07:20:12;;;;;;;;;1.00;1.00;;;;;;;;5012487;28;45556;-81
2021/07/05 07:22:42;;;;;;;;;1.00;1.00;;;;;;;;5019423;28;46008;-80
2021/07/05 07:28:04;;;;;;;;;1.00;1.00;;;;;;;;5140929;23;46297;-81
2021/07/05 07:30:29;;;;;;;;;1.75;1.00;;;;;;;;5062744;27;45470;-81
2021/07/05 07:32:54;;;;;;;;;1.67;1.00;;;;;;;;5054604;27;45568;-82
2021/07/05 07:35:20;;;;;;;;;1.00;1.00;;;;;;;;5050244;27;45552;-81
2021/07/05 07:37:47;;;;;;;;;1.50;0.00;;;;;;;;5040662;28;47775;-80
2021/07/05 07:40:23;;;;;;;;;1.00;1.00;;;;;;;;5051122;27;45591;-82
2021/07/05 07:42:48;;;;;;;;;1.00;1.00;;;;;;;;5048587;27;45621;-80
2021/07/05 07:45:15;;;;;;;;;0.75;0.50;;;;;;;;5038472;28;45838;-81
2021/07/05 07:47:41;;;;;;;;;0.00;0.00;;;;;;;;5033444;28;48528;-82
2021/07/05 07:50:07;;;;;;;;;1.00;1.00;;;;;;;;5054212;27;45506;-81
2021/07/05 07:52:32;;;;;;;;;1.00;1.00;;;;;;;;5059880;27;45397;-81
2021/07/05 07:54:58;;;;;;;;;1.75;1.00;;;;;;;;5053063;27;45495;-81
2021/07/05 07:57:23;;;;;;;;;2.50;1.25;;;;;;;;5051762;27;51749;-81
2021/07/05 07:59:49;;;;;;;;;2.00;1.00;;;;;;;;5033894;28;45629;-81
2021/07/05 08:02:14;;;;;;;;;1.00;1.00;;;;;;;;5048771;27;45787;-82
2021/07/05 08:04:39;;;;;;;;;1.00;1.00;;;;;;;;5059198;27;45531;-82
2021/07/05 08:07:05;;;;;;;;;1.00;1.00;;;;;;;;5054138;27;48385;-82
2021/07/05 08:09:30;;;;;;;;;1.00;1.00;;;;;;;;5052225;27;45492;-82
2021/07/05 08:11:55;;;;;;;;;1.75;1.75;;;;;;;;5053126;27;45548;-82
2021/07/05 08:14:21;;;;;;;;;2.00;2.00;;;;;;;;5056100;27;46017;-79
2021/07/05 08:16:46;;;;;;;;;2.50;2.50;;;;;;;;5061901;27;45982;-81
2021/07/05 08:21:47;;;;;;;;;2.50;2.00;;;;;;;;5231191;22;45832;-81
2021/07/05 08:24:12;;;;;;;;;2.00;1.00;;;;;;;;5034092;28;45653;-80
2021/07/05 08:26:38;;;;;;;;;1.00;1.00;;;;;;;;5027736;28;48280;-80
2021/07/05 08:29:03;;;;;;;;;2.00;1.50;;;;;;;;5055621;27;45599;-81
2021/07/05 08:31:29;;;;;;;;;3.00;1.50;;;;;;;;5034795;28;45826;-82
2021/07/05 08:33:54;;;;;;;;;2.00;1.00;;;;;;;;5052235;27;48712;-83
2021/07/05 08:36:20;;;;;;;;;3.75;2.25;;;;;;;;5054753;27;45547;-82
2021/07/05 08:38:46;;;;;;;;;2.00;1.50;;;;;;;;5031287;28;45595;-82
2021/07/05 08:41:11;;;;;;;;;3.50;2.50;;;;;;;;5052222;27;47488;-81
2021/07/05 08:43:40;;;;;;;;;2.25;2.25;;;;;;;;5056391;27;46398;-82
2021/07/05 08:46:06;;;;;;;;;2.00;2.00;;;;;;;;5055490;27;46326;-82
2021/07/05 08:48:33;;;;;;;;;3.00;3.00;;;;;;;;5058594;27;45516;-81
2021/07/05 08:50:59;;;;;;;;;5.00;2.75;;;;;;;;5053250;27;48191;-86
2021/07/05 08:53:24;;;;;;;;;3.25;2.75;;;;;;;;5030010;28;45479;-83
2021/07/05 08:55:50;;;;;;;;;2.75;2.25;;;;;;;;5050628;27;45829;-82
2021/07/05 08:58:15;;;;;;;;;2.00;2.00;;;;;;;;5029183;28;45729;-82
2021/07/05 09:00:40;;;;;;;;;2.00;2.00;;;;;;;;5040785;28;45476;-82
2021/07/05 09:03:06;;;;;;;;;1.50;1.50;;;;;;;;5042508;27;46191;-81
2021/07/05 09:05:31;;;;;;;;;5.50;3.00;;;;;;;;5043796;27;47057;-81
2021/07/05 09:08:07;;;;;;;;;3.50;2.00;;;;;;;;5046372;27;45416;-82
2021/07/05 09:10:52;;;;;;;;;2.75;2.75;;;;;;;;5031434;28;45780;-81
2021/07/05 09:13:25;;;;;;;;;3.75;3.75;;;;;;;;5037588;28;45982;-81
2021/07/05 09:15:52;;;;;;;;;3.25;3.25;;;;;;;;5038273;28;46584;-80
2021/07/05 09:18:44;;;;;;;;;2.75;2.50;;;;;;;;5038530;28;45554;-81
2021/07/05 09:21:26;;;;;;;;;3.00;3.00;;;;;;;;5035526;28;45576;-81
2021/07/05 09:23:53;;;;;;;;;2.50;2.00;;;;;;;;5044182;27;45830;-80
2021/07/05 09:26:19;;;;;;;;;2.25;2.25;;;;;;;;5043537;27;45970;-81
2021/07/05 09:28:45;;;;;;;;;2.00;2.00;;;;;;;;5053133;27;45867;-81
2021/07/05 09:31:10;;;;;;;;;3.00;2.25;;;;;;;;5051917;27;45509;-81
2021/07/05 09:33:43;;;;;;;;;1.75;1.75;;;;;;;;5049359;27;46539;-81
2021/07/05 09:36:18;;;;;;;;;1.75;1.75;;;;;;;;5046035;27;45864;-81
2021/07/05 09:38:43;;;;;;;;;1.75;1.75;;;;;;;;5042585;28;45632;-80
2021/07/05 09:41:20;;;;;;;;;1.75;1.75;;;;;;;;5041365;28;45757;-81
2021/07/05 09:43:46;;;;;;;;;1.75;1.75;;;;;;;;5044766;27;45678;-81
2021/07/05 09:46:12;;;;;;;;;2.00;1.00;;;;;;;;5034950;27;47038;-81
2021/07/05 09:48:46;;;;;;;;;1.50;1.50;;;;;;;;5056845;27;45683;-81
2021/07/05 09:51:14;;;;;;;;;1.75;1.75;;;;;;;;5053886;27;45468;-81
2021/07/05 09:53:43;;;;;;;;;1.50;1.50;;;;;;;;5045397;27;45753;-82
2021/07/05 09:56:18;;;;;;;;;2.00;2.00;;;;;;;;5046759;28;45591;-81
2021/07/05 09:58:43;;;;;;;;;3.25;2.00;;;;;;;;5028977;28;45741;-81
2021/07/05 10:01:09;;;;;;;;;1.75;1.75;;;;;;;;5029109;27;45652;-81
2021/07/05 10:03:36;;;;;;;;;2.75;2.00;;;;;;;;5047496;27;45538;-81
2021/07/05 10:06:16;;;;;;;;;3.75;2.00;;;;;;;;5041227;27;46955;-81
2021/07/05 10:08:41;;;;;;;;;1.75;1.75;;;;;;;;5041999;27;45718;-81
2021/07/05 10:11:07;;;;;;;;;2.00;2.00;;;;;;;;5036210;28;46445;-81
2021/07/05 10:13:32;;;;;;;;;1.00;1.00;;;;;;;;5043594;27;45612;-81
2021/07/05 10:16:01;;;;;;;;;0.75;0.75;;;;;;;;5045546;27;45452;-80
2021/07/05 10:18:27;;;;;;;;;1.00;1.00;;;;;;;;5038421;28;46086;-81
2021/07/05 10:20:52;;;;;;;;;1.00;1.00;;;;;;;;5048672;27;45938;-81
2021/07/05 10:23:19;;;;;;;;;1.00;1.00;;;;;;;;5037101;28;47483;-81
2021/07/05 10:25:46;;;;;;;;;1.00;1.00;;;;;;;;5042921;28;46105;-81
2021/07/05 10:28:11;;;;;;;;;1.00;1.00;;;;;;;;5045461;28;45558;-81
2021/07/05 10:30:37;;;;;;;;;1.75;1.75;;;;;;;;5052633;28;45409;-81
2021/07/05 10:33:03;;;;;;;;;1.00;1.00;;;;;;;;5036938;28;47743;-81
2021/07/05 10:35:33;;;;;;;;;1.25;1.25;;;;;;;;5052176;27;46133;-81
2021/07/05 10:38:01;;;;;;;;;1.00;1.00;;;;;;;;5054438;27;45744;-81
2021/07/05 10:40:33;;;;;;;;;1.00;1.00;;;;;;;;5033973;28;45753;-81
2021/07/05 10:42:58;;;;;;;;;1.00;1.00;;;;;;;;5033587;27;45476;-82
2021/07/05 10:45:44;;;;;;;;;1.75;1.00;;;;;;;;5032036;28;46936;-82
2021/07/05 10:48:16;;;;;;;;;0.75;0.75;;;;;;;;5034506;28;46325;-81
2021/07/05 10:50:42;;;;;;;;;2.00;2.00;;;;;;;;5048554;27;45484;-80
2021/07/05 10:53:12;;;;;;;;;3.00;2.00;;;;;;;;5058309;27;45721;-80
2021/07/05 10:55:38;;;;;;;;;1.25;1.25;;;;;;;;5040050;28;47268;-81
2021/07/05 11:03:38;;;;;;;;;2.00;2.00;;;;;;;;5594986;22;45804;-81
2021/07/05 11:06:09;;;;;;;;;1.75;1.75;;;;;;;;5010368;28;46221;-82
2021/07/05 11:08:45;;;;;;;;;3.00;1.25;;;;;;;;5018337;28;45586;-81
2021/07/05 11:11:10;;;;;;;;;2.00;2.00;;;;;;;;5024201;28;45758;-81
2021/07/05 11:13:36;;;;;;;;;3.00;1.00;;;;;;;;5018484;28;45500;-80
2021/07/05 11:16:01;;;;;;;;;1.00;1.00;;;;;;;;5012845;28;55554;-81
2021/07/05 11:18:36;;;;;;;;;1.50;1.25;;;;;;;;5003631;28;45827;-84
2021/07/05 11:21:02;;;;;;;;;0.75;0.75;;;;;;;;5007404;28;46990;-82
2021/07/05 11:28:37;;;;;;;;;1.00;1.00;;;;;;;;5712113;22;45777;-82
2021/07/05 11:31:18;;;;;;;;;0.25;0.25;;;;;;;;5023958;28;45635;-82
2021/07/05 11:33:43;;;;;;;;;1.00;1.00;;;;;;;;5051083;22;45600;-96
2021/07/05 11:36:17;;;;;;;;;0.67;0.67;;;;;;;;5049731;27;46868;-96
2021/07/05 11:41:18;;;;;;;;;0.00;0.00;;;;;;;;5265019;22;45849;-80
2021/07/05 11:43:57;;;;;;;;;1.00;1.00;;;;;;;;4988415;28;45992;-80
2021/07/05 11:46:26;;;;;;;;;1.75;1.75;;;;;;;;4980825;28;47261;-81
2021/07/05 11:48:52;;;;;;;;;1.00;1.00;;;;;;;;4979194;28;45775;-80
2021/07/05 11:51:19;;;;;;;;;1.75;1.00;;;;;;;;4991646;28;45563;-81
2021/07/05 11:53:52;;;;;;;;;1.50;1.50;;;;;;;;4973824;28;46020;-82
2021/07/05 11:56:24;;;;;;;;;2.00;2.00;;;;;;;;4988356;28;47257;-83
2021/07/05 11:58:50;;;;;;;;;0.75;0.75;;;;;;;;4980028;28;46005;-83
2021/07/05 12:01:15;;;;;;;;;1.00;1.00;;;;;;;;4986240;28;45550;-81
2021/07/05 12:03:51;;;;;;;;;1.00;1.00;;;;;;;;4992264;28;45630;-81
2021/07/05 12:06:16;;;;;;;;;2.75;2.00;;;;;;;;4991737;28;46411;-82
2021/07/05 12:08:49;;;;;;;;;1.00;1.00;;;;;;;;4981482;28;45939;-81
2021/07/05 12:11:25;;;;;;;;;1.00;0.50;;;;;;;;5001020;28;46008;-81
2021/07/05 12:14:00;;;;;;;;;0.50;0.50;;;;;;;;4984565;28;47527;-82
2021/07/05 12:16:26;;;;;;;;;0.75;0.75;;;;;;;;4992048;28;46565;-80
2021/07/05 12:18:58;;;;;;;;;0.75;0.75;;;;;;;;4980843;28;45581;-82
2021/07/05 12:21:36;;;;;;;;;1.00;1.00;;;;;;;;4980834;28;45609;-80
2021/07/05 12:24:27;;;;;;;;;1.00;1.00;;;;;;;;4992911;28;45669;-80
2021/07/05 12:26:57;;;;;;;;;1.00;1.00;;;;;;;;4979957;28;47200;-81
2021/07/05 12:29:29;;;;;;;;;1.50;0.00;;;;;;;;5005148;28;46312;-83
2021/07/05 12:32:01;;;;;;;;;0.00;0.00;;;;;;;;4999553;28;45714;-81
2021/07/05 12:34:50;;;;;;;;;0.00;0.00;;;;;;;;4991904;28;45513;-82
2021/07/05 12:37:24;;;;;;;;;1.00;1.00;;;;;;;;4981932;28;47401;-81
2021/07/05 12:39:49;;;;;;;;;1.00;1.00;;;;;;;;4996428;28;45416;-81
2021/07/05 12:42:22;;;;;;;;;0.00;0.00;;;;;;;;5007977;28;45573;-81
2021/07/05 12:44:47;;;;;;;;;0.00;0.00;;;;;;;;4978826;28;45546;-81
2021/07/05 12:47:13;;;;;;;;;2.00;0.75;;;;;;;;4992452;28;46976;-81
2021/07/05 12:49:38;;;;;;;;;1.00;1.00;;;;;;;;4988073;28;45671;-82
2021/07/05 12:52:05;;;;;;;;;2.25;0.25;;;;;;;;4975788;28;45820;-81
2021/07/05 12:54:30;;;;;;;;;1.75;1.00;;;;;;;;4971704;28;49863;-81
2021/07/05 12:57:05;;;;;;;;;0.00;0.00;;;;;;;;4990287;28;47404;-82
2021/07/05 12:59:32;;;;;;;;;0.25;0.25;;;;;;;;4988962;28;46208;-80
2021/07/05 13:01:57;;;;;;;;;1.00;1.00;;;;;;;;5003564;28;45423;-81
2021/07/05 13:04:24;;;;;;;;;1.00;1.00;;;;;;;;4993887;28;45615;-82
2021/07/05 13:06:59;;;;;;;;;1.75;0.00;;;;;;;;4983120;28;48284;-83
2021/07/05 13:09:25;;;;;;;;;0.75;0.75;;;;;;;;4991213;28;45659;-81
2021/07/05 13:11:52;;;;;;;;;1.00;1.00;;;;;;;;4995434;28;45498;-81
2021/07/05 13:14:22;;;;;;;;;1.00;1.00;;;;;;;;4991368;28;45586;-82
2021/07/05 13:16:48;;;;;;;;;0.25;0.25;;;;;;;;4992698;28;46954;-82
2021/07/05 13:19:18;;;;;;;;;0.00;0.00;;;;;;;;4992883;28;45498;-81
2021/07/05 13:21:45;;;;;;;;;0.75;0.75;;;;;;;;4974841;28;47625;-82
2021/07/05 13:24:29;;;;;;;;;0.00;0.00;;;;;;;;4985983;28;46412;-81
2021/07/05 13:26:59;;;;;;;;;0.75;0.75;;;;;;;;4971888;28;47267;-81
2021/07/05 13:29:26;;;;;;;;;0.25;0.25;;;;;;;;4974480;28;46000;-81
2021/07/05 13:31:51;;;;;;;;;2.50;1.00;;;;;;;;4985177;28;47710;-81
2021/07/05 13:34:35;;;;;;;;;1.00;1.00;;;;;;;;4986612;28;45518;-81
2021/07/05 13:37:02;;;;;;;;;0.25;0.25;;;;;;;;4962136;22;1296890;-81
2021/07/05 13:39:35;;;;;;;;;1.75;0.75;;;;;;;;5014920;28;45736;-81
2021/07/05 13:42:02;;;;;;;;;0.75;0.75;;;;;;;;5016336;28;45668;-84
2021/07/05 13:44:27;;;;;;;;;0.00;0.00;;;;;;;;5018724;28;45578;-84
2021/07/05 13:47:11;;;;;;;;;0.75;0.75;;;;;;;;5004463;28;47506;-84
2021/07/05 13:49:36;;;;;;;;;1.00;1.00;;;;;;;;5018542;28;45684;-86
2021/07/05 13:52:01;;;;;;;;;0.00;0.00;;;;;;;;5005328;28;46227;-82
2021/07/05 13:54:28;;;;;;;;;1.00;1.00;;;;;;;;5015452;28;45616;-83
2021/07/05 13:57:03;;;;;;;;;0.25;0.00;;;;;;;;5015296;28;46034;-83
2021/07/05 13:59:29;;;;;;;;;0.00;0.00;;;;;;;;5018044;28;46472;-81
2021/07/05 14:01:54;;;;;;;;;0.00;0.00;;;;;;;;5013006;28;45470;-82
2021/07/05 14:04:19;;;;;;;;;0.25;0.25;;;;;;;;5020843;28;46043;-85
2021/07/05 14:06:45;;;;;;;;;1.00;1.00;;;;;;;;5021486;28;47372;-84
2021/07/05 14:09:10;;;;;;;;;0.00;0.00;;;;;;;;5015973;28;45529;-85
2021/07/05 14:11:35;;;;;;;;;0.00;0.00;;;;;;;;5005073;28;45509;-82
2021/07/05 14:14:00;;;;;;;;;1.00;1.00;;;;;;;;5018908;28;45679;-81
2021/07/05 14:16:26;;;;;;;;;1.00;1.00;;;;;;;;5017058;28;46346;-82
2021/07/05 14:18:51;;;;;;;;;0.75;0.75;;;;;;;;5021641;28;51094;-84
2021/07/05 14:21:18;;;;;;;;;1.00;1.00;;;;;;;;5020022;28;46876;-84
2021/07/05 14:23:44;;;;;;;;;0.50;0.50;;;;;;;;5020412;28;45535;-83
2021/07/05 14:26:10;;;;;;;;;2.75;1.00;;;;;;;;5019965;28;51262;-82
2021/07/05 14:28:36;;;;;;;;;1.00;1.00;;;;;;;;5019633;28;45675;-84
2021/07/05 14:31:02;;;;;;;;;1.00;1.00;;;;;;;;5025766;28;45616;-82
2021/07/05 14:33:28;;;;;;;;;2.00;1.00;;;;;;;;5020185;28;45952;-84
2021/07/05 14:35:55;;;;;;;;;1.00;1.00;;;;;;;;5012887;28;45725;-84
2021/07/05 14:38:21;;;;;;;;;1.00;1.00;;;;;;;;5019516;28;45670;-85
2021/07/05 14:40:46;;;;;;;;;0.75;0.75;;;;;;;;5020713;28;45719;-84
2021/07/05 14:43:12;;;;;;;;;0.75;0.75;;;;;;;;4999194;28;45740;-82
2021/07/05 14:45:38;;;;;;;;;2.00;1.00;;;;;;;;5012322;28;46692;-84
2021/07/05 14:48:03;;;;;;;;;1.00;1.00;;;;;;;;4997402;28;51302;-81
2021/07/05 14:50:30;;;;;;;;;1.00;1.00;;;;;;;;5000249;28;45601;-83
2021/07/05 14:52:56;;;;;;;;;0.25;0.25;;;;;;;;4999197;28;46577;-80
2021/07/05 14:55:22;;;;;;;;;1.00;1.00;;;;;;;;4992855;28;47014;-82
2021/07/05 14:57:47;;;;;;;;;1.00;1.00;;;;;;;;5018721;28;45637;-82
2021/07/05 15:00:18;;;;;;;;;0.25;0.25;;;;;;;;5019484;28;45656;-82
2021/07/05 15:02:44;;;;;;;;;1.00;1.00;;;;;;;;5000779;28;45518;-82
2021/07/05 15:05:10;;;;;;;;;0.00;0.00;;;;;;;;5024024;28;47857;-81
2021/07/05 15:07:35;;;;;;;;;0.50;0.50;;;;;;;;5022907;28;45521;-82